createdAt,value
2022-08-14T00:02:21.866Z,47.40
2022-08-14T00:04:51.010Z,47.30
2022-08-14T00:07:17.686Z,47.40
2022-08-14T00:09:55.948Z,48.00
2022-08-14T00:12:48.190Z,47.90
2022-08-14T00:15:15.373Z,47.70
2022-08-14T00:17:48.097Z,47.50
2022-08-14T00:20:23.932Z,46.80
2022-08-14T00:22:58.444Z,47.30
2022-08-14T00:25:25.098Z,46.60
2022-08-14T00:28:07.890Z,47.50
2022-08-14T00:30:35.478Z,47.40
2022-08-14T00:33:15.075Z,46.90
2022-08-14T00:36:35.224Z,46.30
2022-08-14T00:40:56.206Z,47.60
2022-08-14T00:43:24.465Z,46.80
2022-08-14T00:45:58.066Z,47.40
2022-08-14T00:48:34.433Z,47.30
2022-08-14T00:51:03.001Z,46.40
2022-08-14T00:53:29.428Z,46.80
2022-08-14T00:55:55.933Z,47.30
2022-08-14T00:58:27.949Z,47.40
2022-08-14T01:00:59.686Z,47.40
2022-08-14T01:03:28.490Z,46.80
2022-08-14T01:05:57.924Z,47.20
2022-08-14T01:11:11.372Z,46.70
2022-08-14T01:13:45.760Z,47.60
2022-08-14T01:16:27.381Z,47.80
2022-08-14T01:19:01.419Z,46.70
2022-08-14T01:23:55.978Z,47.50
2022-08-14T01:29:01.822Z,46.50
2022-08-14T01:31:30.371Z,47.60
2022-08-14T01:35:15.845Z,46.80
2022-08-14T01:36:43.381Z,47.50
2022-08-14T01:39:09.830Z,47.40
2022-08-14T01:46:57.943Z,47.40
2022-08-14T01:52:01.724Z,47.50
2022-08-14T01:54:37.853Z,46.60
2022-08-14T01:57:04.791Z,47.40
2022-08-14T01:59:37.489Z,46.40
2022-08-14T02:02:05.045Z,46.40
2022-08-14T02:07:34.545Z,47.50
2022-08-14T02:10:07.976Z,46.50
2022-08-14T02:12:39.875Z,46.70
2022-08-14T02:15:08.697Z,46.60
2022-08-14T02:17:35.620Z,47.30
2022-08-14T02:20:02.882Z,47.50
2022-08-14T02:22:33.379Z,46.40
2022-08-14T02:25:00.470Z,46.20
2022-08-14T02:28:25.074Z,46.30
2022-08-14T02:32:40.372Z,46.60
2022-08-14T02:35:07.178Z,46.70
2022-08-14T02:37:47.640Z,46.90
2022-08-14T02:40:15.277Z,46.10
2022-08-14T02:42:54.780Z,46.30
2022-08-14T02:47:53.937Z,47.50
2022-08-14T02:50:26.959Z,46.70
2022-08-14T02:52:57.209Z,46.70
2022-08-14T02:55:29.229Z,46.60
2022-08-14T02:57:58.139Z,47.10
2022-08-14T03:00:30.259Z,46.40
2022-08-14T03:02:59.326Z,47.20
2022-08-14T03:05:26.323Z,46.50
2022-08-14T03:10:27.993Z,46.60
2022-08-14T03:12:58.478Z,46.50
2022-08-14T03:15:24.921Z,46.50
2022-08-14T03:17:58.407Z,47.20
2022-08-14T03:20:25.073Z,47.20
2022-08-14T03:22:52.513Z,46.30
2022-08-14T03:25:19.036Z,46.90
2022-08-14T03:30:14.811Z,46.40
2022-08-14T03:35:16.739Z,47.30
2022-08-14T03:39:10.879Z,46.40
2022-08-14T03:40:30.081Z,46.50
2022-08-14T03:53:00.398Z,46.50
2022-08-14T03:55:27.137Z,46.10
2022-08-14T03:57:53.979Z,46.60
2022-08-14T04:00:40.611Z,46.80
2022-08-14T04:03:06.841Z,46.30
2022-08-14T04:08:30.124Z,47.80
2022-08-14T04:10:56.133Z,47.00
2022-08-14T04:13:23.796Z,46.80
2022-08-14T04:16:01.314Z,46.00
2022-08-14T04:18:28.834Z,46.40
2022-08-14T04:20:55.994Z,47.10
2022-08-14T04:23:23.329Z,46.70
2022-08-14T04:25:49.950Z,46.30
2022-08-14T04:29:06.767Z,46.70
2022-08-14T04:31:02.824Z,47.10
2022-08-14T04:35:58.815Z,46.10
2022-08-14T04:38:36.596Z,47.00
2022-08-14T04:41:04.721Z,46.60
2022-08-14T04:43:38.985Z,46.80
2022-08-14T04:46:06.759Z,46.90
2022-08-14T04:48:43.158Z,46.90
2022-08-14T04:51:10.304Z,46.10
2022-08-14T04:53:42.929Z,46.90
2022-08-14T04:56:10.823Z,46.70
2022-08-14T04:58:56.389Z,46.80
2022-08-14T05:01:22.911Z,47.00
2022-08-14T05:03:49.388Z,45.60
2022-08-14T05:06:38.530Z,43.60
2022-08-14T05:09:03.518Z,42.60
2022-08-14T05:11:31.265Z,43.00
2022-08-14T05:14:34.201Z,43.40
2022-08-14T05:16:44.170Z,44.00
2022-08-14T05:19:18.400Z,43.80
2022-08-14T05:22:00.579Z,43.90
2022-08-14T05:29:34.346Z,44.20
2022-08-14T05:32:01.450Z,44.00
2022-08-14T05:37:02.525Z,44.80
2022-08-14T05:39:29.868Z,45.40
2022-08-14T05:41:56.419Z,45.00
2022-08-14T05:44:25.663Z,45.30
2022-08-14T05:46:55.740Z,45.20
2022-08-14T05:54:27.030Z,45.70
2022-08-14T05:56:54.035Z,45.30
2022-08-14T06:01:55.156Z,46.30
2022-08-14T06:04:21.930Z,46.20
2022-08-14T06:06:48.427Z,46.30
2022-08-14T06:09:14.884Z,46.50
2022-08-14T06:11:41.644Z,46.50
2022-08-14T06:14:20.632Z,46.80
2022-08-14T06:16:48.199Z,46.70
2022-08-14T06:21:44.821Z,46.70
2022-08-14T06:24:18.847Z,46.60
2022-08-14T06:26:51.955Z,46.80
2022-08-14T06:29:23.567Z,45.80
2022-08-14T06:31:54.637Z,46.40
2022-08-14T06:35:03.241Z,46.60
2022-08-14T06:37:13.603Z,47.40
2022-08-14T06:42:31.383Z,47.50
2022-08-14T06:47:24.824Z,47.30
2022-08-14T06:49:57.989Z,46.80
2022-08-14T06:52:24.760Z,47.40
2022-08-14T06:54:51.402Z,46.60
2022-08-14T06:57:18.393Z,46.10
2022-08-14T06:59:44.852Z,47.00
2022-08-14T07:02:13.199Z,46.10
2022-08-14T07:04:40.224Z,46.10
2022-08-14T07:07:07.163Z,46.40
2022-08-14T07:09:43.820Z,46.00
2022-08-14T07:12:44.558Z,46.00
2022-08-14T07:15:03.770Z,46.60
2022-08-14T07:17:31.996Z,46.40
2022-08-14T07:20:00.761Z,46.60
2022-08-14T07:22:32.873Z,46.90
2022-08-14T07:25:13.636Z,46.80
2022-08-14T07:27:40.815Z,46.50
2022-08-14T07:32:36.354Z,46.10
2022-08-14T07:35:02.794Z,46.30
2022-08-14T07:37:29.261Z,45.40
2022-08-14T07:39:55.993Z,44.40
2022-08-14T07:42:22.743Z,43.40
2022-08-14T07:44:50.601Z,44.20
2022-08-14T07:47:17.504Z,43.50
2022-08-14T07:52:10.926Z,43.80
2022-08-14T07:54:39.278Z,44.10
2022-08-14T07:57:06.279Z,42.30
2022-08-14T07:59:42.388Z,43.40
2022-08-14T08:02:18.546Z,43.40
2022-08-14T08:04:46.301Z,43.80
2022-08-14T08:07:15.929Z,44.40
2022-08-14T08:09:45.254Z,43.50
2022-08-14T08:12:14.323Z,43.60
2022-08-14T08:14:56.916Z,43.70
2022-08-14T08:17:34.368Z,44.10
2022-08-14T08:20:01.042Z,44.20
2022-08-14T08:22:27.550Z,44.20
2022-08-14T08:24:59.036Z,42.30
2022-08-14T08:27:27.209Z,43.00
2022-08-14T08:32:20.637Z,44.20
2022-08-14T08:34:56.522Z,44.40
2022-08-14T08:37:25.553Z,44.70
2022-08-14T08:40:02.829Z,43.70
2022-08-14T08:42:31.262Z,44.70
2022-08-14T08:44:58.250Z,45.00
2022-08-14T08:47:24.727Z,44.90
2022-08-14T08:49:59.515Z,43.80
2022-08-14T08:55:10.740Z,44.30
2022-08-14T08:57:39.237Z,43.20
2022-08-14T09:00:10.053Z,44.10
2022-08-14T09:02:52.104Z,43.70
2022-08-14T09:05:18.611Z,43.30
2022-08-14T09:07:49.334Z,43.10
2022-08-14T09:10:22.979Z,44.10
2022-08-14T09:15:18.186Z,44.20
2022-08-14T09:17:46.319Z,43.90
2022-08-14T09:20:19.347Z,44.50
2022-08-14T09:22:53.321Z,44.60
2022-08-14T09:25:59.625Z,45.10
2022-08-14T09:28:08.153Z,44.50
2022-08-14T09:30:34.704Z,44.40
2022-08-14T09:33:02.974Z,45.20
2022-08-14T09:35:32.680Z,44.90
2022-08-14T09:38:00.768Z,44.10
2022-08-14T09:40:29.388Z,44.50
2022-08-14T09:42:56.285Z,43.70
2022-08-14T09:45:23.145Z,44.20
2022-08-14T09:47:51.939Z,43.20
2022-08-14T09:50:18.803Z,44.10
2022-08-14T09:52:46.695Z,43.90
2022-08-14T09:55:13.959Z,43.80
2022-08-14T09:57:40.472Z,43.30
2022-08-14T10:00:06.952Z,42.60
2022-08-14T10:05:13.260Z,41.70
2022-08-14T10:07:41.066Z,41.90
2022-08-14T10:10:23.351Z,40.50
2022-08-14T10:12:53.106Z,41.70
2022-08-14T10:15:21.416Z,41.70
2022-08-14T10:20:42.145Z,40.80
2022-08-14T10:23:12.782Z,42.00
2022-08-14T10:25:42.555Z,41.80
2022-08-14T10:28:09.025Z,42.60
2022-08-14T10:30:55.464Z,42.10
2022-08-14T10:33:21.907Z,42.20
2022-08-14T10:35:48.425Z,41.10
2022-08-14T10:38:15.268Z,41.10
2022-08-14T10:40:52.077Z,41.40
2022-08-14T10:43:25.923Z,40.90
2022-08-14T10:46:03.936Z,40.40
2022-08-14T10:51:11.488Z,41.20
2022-08-14T10:53:39.337Z,41.90
2022-08-14T10:56:06.649Z,41.60
2022-08-14T10:58:48.573Z,40.70
2022-08-14T11:01:15.534Z,41.10
2022-08-14T11:03:56.399Z,40.10
2022-08-14T11:06:24.754Z,40.70
2022-08-14T11:08:51.360Z,41.70
2022-08-14T11:11:19.343Z,41.80
2022-08-14T11:13:45.789Z,42.20
2022-08-14T11:16:12.604Z,42.00
2022-08-14T11:18:40.673Z,40.30
2022-08-14T11:21:08.218Z,42.10
2022-08-14T11:23:38.704Z,41.20
2022-08-14T11:26:07.073Z,42.10
2022-08-14T11:28:48.297Z,42.20
2022-08-14T11:31:16.056Z,41.60
2022-08-14T11:33:42.492Z,41.30
2022-08-14T11:38:37.829Z,41.00
2022-08-14T11:41:04.519Z,41.80
2022-08-14T11:45:57.955Z,41.70
2022-08-14T11:49:01.628Z,41.70
2022-08-14T11:51:10.988Z,41.60
2022-08-14T11:53:42.019Z,41.80
2022-08-14T11:56:08.856Z,42.50
2022-08-14T12:01:04.681Z,42.80
2022-08-14T12:03:46.227Z,43.20
2022-08-14T12:08:56.354Z,43.00
2022-08-14T12:13:55.758Z,42.50
2022-08-14T12:16:22.860Z,42.70
2022-08-14T12:18:49.551Z,43.50
2022-08-14T12:21:19.275Z,42.50
2022-08-14T12:23:45.990Z,43.80
2022-08-14T12:26:39.957Z,43.10
2022-08-14T12:29:03.362Z,43.90
2022-08-14T12:31:36.310Z,44.10
2022-08-14T12:34:11.461Z,43.70
2022-08-14T12:36:37.922Z,43.50
2022-08-14T12:39:05.645Z,43.70
2022-08-14T12:41:34.471Z,43.40
2022-08-14T12:44:03.726Z,44.00
2022-08-14T12:46:30.180Z,44.30
2022-08-14T12:48:56.616Z,44.10
2022-08-14T12:51:25.170Z,43.30
2022-08-14T12:53:53.564Z,43.40
2022-08-14T12:56:33.015Z,44.40
2022-08-14T12:59:00.625Z,44.40
2022-08-14T13:01:27.565Z,43.70
2022-08-14T13:06:21.069Z,44.40
2022-08-14T13:08:53.079Z,44.10
2022-08-14T13:11:20.025Z,43.80
2022-08-14T13:13:50.197Z,44.00
2022-08-14T13:16:20.610Z,43.30
2022-08-14T13:18:58.351Z,44.40
2022-08-14T13:21:25.114Z,44.10
2022-08-14T13:26:19.175Z,44.80
2022-08-14T13:29:02.806Z,44.90
2022-08-14T13:31:30.475Z,45.30
2022-08-14T13:33:57.036Z,45.20
2022-08-14T13:36:51.764Z,45.20
2022-08-14T13:39:10.997Z,45.30
2022-08-14T13:41:39.372Z,45.20
2022-08-14T13:44:13.650Z,43.70
2022-08-14T13:46:40.521Z,44.80
2022-08-14T13:49:10.212Z,45.00
2022-08-14T13:51:36.666Z,45.40
2022-08-14T13:56:37.700Z,44.90
2022-08-14T13:59:04.857Z,45.10
2022-08-14T14:01:34.979Z,44.30
2022-08-14T14:04:11.336Z,44.90
2022-08-14T14:06:45.363Z,44.70
2022-08-14T14:09:13.288Z,45.60
2022-08-14T14:11:39.730Z,45.10
2022-08-14T14:14:07.525Z,45.50
2022-08-14T14:16:53.967Z,45.30
2022-08-14T14:19:20.753Z,45.30
2022-08-14T14:21:49.989Z,45.40
2022-08-14T14:24:16.475Z,45.30
2022-08-14T14:26:42.931Z,45.40
2022-08-14T14:31:36.383Z,44.30
2022-08-14T14:34:12.575Z,44.60
2022-08-14T14:36:52.675Z,44.60
2022-08-14T14:41:49.829Z,45.80
2022-08-14T14:44:22.788Z,44.80
2022-08-14T14:46:49.941Z,45.00
2022-08-14T14:51:43.646Z,45.10
2022-08-14T14:54:10.111Z,45.20
2022-08-14T14:56:49.690Z,45.40
2022-08-14T14:59:20.329Z,45.80
2022-08-14T15:04:20.763Z,45.00
2022-08-14T15:06:48.096Z,45.80
2022-08-14T15:09:17.859Z,45.80
2022-08-14T15:11:45.634Z,45.30
2022-08-14T15:14:55.276Z,44.40
2022-08-14T15:16:59.196Z,45.00
2022-08-14T15:19:26.928Z,45.00
2022-08-14T15:21:53.360Z,45.90
2022-08-14T15:24:24.378Z,45.40
2022-08-14T15:26:53.562Z,44.80
2022-08-14T15:29:20.011Z,45.40
2022-08-14T15:31:46.478Z,45.70
2022-08-14T15:34:46.111Z,46.00
2022-08-14T15:36:59.380Z,45.20
2022-08-14T15:39:25.925Z,44.90
2022-08-14T15:41:57.209Z,45.50
2022-08-14T15:46:55.411Z,45.70
2022-08-14T15:49:21.873Z,45.10
2022-08-14T15:51:48.310Z,45.20
2022-08-14T15:54:17.453Z,45.50
2022-08-14T15:56:48.399Z,46.50
2022-08-14T15:59:18.059Z,46.00
2022-08-14T16:01:54.630Z,45.30
2022-08-14T16:04:21.293Z,46.30
2022-08-14T16:06:54.626Z,45.40
2022-08-14T16:09:22.571Z,45.30
2022-08-14T16:11:53.378Z,45.70
2022-08-14T16:14:20.621Z,46.30
2022-08-14T16:16:51.490Z,45.90
2022-08-14T16:19:26.749Z,46.40
2022-08-14T16:22:01.888Z,45.50
2022-08-14T16:25:02.207Z,46.20
2022-08-14T16:27:37.071Z,46.30
2022-08-14T16:30:07.066Z,46.00
2022-08-14T16:32:55.310Z,45.50
2022-08-14T16:37:49.780Z,45.60
2022-08-14T16:40:16.262Z,45.60
2022-08-14T16:43:04.384Z,46.50
2022-08-14T16:45:29.141Z,45.30
2022-08-14T16:47:55.588Z,46.50
2022-08-14T16:50:40.751Z,46.60
2022-08-14T16:53:09.633Z,45.50
2022-08-14T16:55:53.363Z,46.30
2022-08-14T16:58:30.413Z,45.90
2022-08-14T17:00:57.088Z,46.40
2022-08-14T17:03:23.572Z,45.40
2022-08-14T17:08:41.614Z,45.50
2022-08-14T17:11:09.665Z,46.10
2022-08-14T17:13:58.337Z,45.80
2022-08-14T17:16:25.402Z,45.90
2022-08-14T17:21:31.731Z,46.60
2022-08-14T17:23:58.694Z,46.60
2022-08-14T17:26:28.163Z,45.60
2022-08-14T17:28:56.870Z,46.70
2022-08-14T17:31:23.308Z,45.40
2022-08-14T17:33:52.448Z,45.80
2022-08-14T17:38:59.575Z,46.50
2022-08-14T17:41:27.090Z,46.10
2022-08-14T17:43:59.535Z,47.80
2022-08-14T17:46:26.007Z,46.70
2022-08-14T17:49:15.033Z,46.70
2022-08-14T17:51:38.893Z,46.10
2022-08-14T17:54:22.630Z,47.00
2022-08-14T17:57:01.109Z,46.30
2022-08-14T17:59:27.565Z,47.50
2022-08-14T18:01:54.775Z,47.40
2022-08-14T18:04:28.279Z,47.70
2022-08-14T18:06:58.829Z,46.30
2022-08-14T18:09:36.458Z,47.30
2022-08-14T18:12:03.602Z,47.50
2022-08-14T18:14:32.723Z,46.50
2022-08-14T18:19:42.606Z,46.10
2022-08-14T18:22:31.305Z,47.40
2022-08-14T18:24:55.501Z,46.90
2022-08-14T18:27:22.983Z,47.10
2022-08-14T18:29:55.568Z,47.10
2022-08-14T18:32:22.244Z,46.40
2022-08-14T18:34:51.186Z,47.00
2022-08-14T18:40:03.006Z,47.40
2022-08-14T18:42:30.735Z,46.60
2022-08-14T18:44:57.229Z,46.60
2022-08-14T18:49:50.649Z,47.10
2022-08-14T18:52:18.939Z,47.30
2022-08-14T18:54:48.568Z,46.30
2022-08-14T18:59:53.594Z,46.90
2022-08-14T19:02:24.794Z,48.20
2022-08-14T19:04:57.245Z,46.30
2022-08-14T19:07:25.322Z,47.10
2022-08-14T19:09:51.773Z,46.20
2022-08-14T19:12:27.923Z,47.40
2022-08-14T19:14:55.522Z,46.60
2022-08-14T19:17:22.307Z,47.70
2022-08-14T19:19:48.786Z,47.20
2022-08-14T19:24:56.592Z,47.00
2022-08-14T19:27:25.170Z,47.00
2022-08-14T19:29:52.900Z,46.50
2022-08-14T19:32:19.342Z,46.70
2022-08-14T19:34:48.127Z,46.50
2022-08-14T19:37:19.253Z,46.60
2022-08-14T19:39:48.587Z,46.50
2022-08-14T19:42:28.509Z,47.00
2022-08-14T19:44:57.129Z,46.40
2022-08-14T19:47:24.182Z,46.40
2022-08-14T19:50:08.653Z,45.70
2022-08-14T19:52:51.884Z,45.70
2022-08-14T19:55:18.360Z,46.40
2022-08-14T19:57:52.042Z,46.20
2022-08-14T20:00:27.999Z,46.90
2022-08-14T20:02:57.958Z,46.90
2022-08-14T20:05:28.484Z,45.80
2022-08-14T20:10:58.562Z,45.80
2022-08-14T20:11:04.010Z,46.90
2022-08-14T20:13:41.974Z,47.20
2022-08-14T20:16:12.098Z,46.10
2022-08-14T20:18:49.906Z,47.20
2022-08-14T20:23:45.902Z,46.70
2022-08-14T20:26:14.806Z,47.30
2022-08-14T20:28:58.546Z,46.90
2022-08-14T20:31:24.986Z,46.90
2022-08-14T20:34:04.117Z,46.90
2022-08-14T20:36:32.714Z,46.80
2022-08-14T20:38:59.162Z,47.10
2022-08-14T20:41:25.617Z,46.50
2022-08-14T20:43:53.208Z,47.40
2022-08-14T20:46:19.760Z,47.20
2022-08-14T20:48:52.354Z,47.20
2022-08-14T20:51:20.085Z,47.00
2022-08-14T20:53:50.468Z,47.00
2022-08-14T20:56:29.100Z,47.40
2022-08-14T20:58:56.824Z,47.00
2022-08-14T21:01:23.288Z,46.30
2022-08-14T21:03:56.687Z,47.50
2022-08-14T21:06:24.244Z,47.30
2022-08-14T21:08:51.211Z,47.20
2022-08-14T21:11:17.941Z,47.30
2022-08-14T21:14:20.564Z,47.20
2022-08-14T21:16:35.012Z,47.30
2022-08-14T21:19:03.997Z,47.10
2022-08-14T21:21:41.885Z,47.30
2022-08-14T21:24:08.681Z,46.70
2022-08-14T21:26:52.568Z,47.40
2022-08-14T21:29:21.556Z,47.40
2022-08-14T21:31:56.001Z,47.20
2022-08-14T21:34:27.613Z,47.40
2022-08-14T21:36:59.006Z,46.50
2022-08-14T21:39:25.466Z,47.30
2022-08-14T21:41:58.650Z,47.40
2022-08-14T21:44:25.666Z,46.90
2022-08-14T21:47:09.868Z,46.50
2022-08-14T21:49:38.710Z,47.40
2022-08-14T21:52:49.607Z,46.50
2022-08-14T21:54:52.049Z,47.30
2022-08-14T21:57:20.061Z,47.50
2022-08-14T22:00:34.538Z,47.70
2022-08-14T22:02:55.369Z,47.30
2022-08-14T22:05:21.929Z,47.10
2022-08-14T22:07:48.926Z,46.80
2022-08-14T22:10:23.019Z,47.10
2022-08-14T22:13:00.474Z,47.30
2022-08-14T22:17:55.210Z,47.30
2022-08-14T22:20:21.853Z,47.50
2022-08-14T22:22:49.257Z,47.30
2022-08-14T22:25:22.721Z,47.30
2022-08-14T22:28:00.846Z,47.20
2022-08-14T22:30:27.381Z,47.40
2022-08-14T22:32:56.797Z,46.60
2022-08-14T22:35:24.839Z,47.20
2022-08-14T22:38:32.601Z,46.30
2022-08-14T22:41:00.949Z,47.30
2022-08-14T22:45:55.562Z,47.00
2022-08-14T22:48:23.316Z,47.20
2022-08-14T22:50:53.570Z,46.70
2022-08-14T22:53:20.323Z,46.50
2022-08-14T22:55:46.761Z,47.20
2022-08-14T23:00:44.033Z,46.70
2022-08-14T23:03:17.006Z,46.90
2022-08-14T23:05:52.717Z,46.60
2022-08-14T23:08:57.984Z,46.90
2022-08-14T23:11:07.483Z,47.50
2022-08-14T23:13:33.918Z,46.60
2022-08-14T23:16:00.360Z,47.30
2022-08-14T23:18:29.752Z,47.60
2022-08-14T23:20:56.364Z,47.60
2022-08-14T23:23:23.357Z,47.50
2022-08-14T23:25:58.827Z,47.50
2022-08-14T23:28:33.459Z,47.10
2022-08-14T23:31:14.066Z,46.90
2022-08-14T23:33:45.618Z,46.50
2022-08-14T23:36:28.368Z,47.20
2022-08-14T23:41:25.869Z,47.00
2022-08-14T23:44:12.298Z,46.80
2022-08-14T23:46:38.759Z,47.70
2022-08-14T23:49:06.053Z,47.40
2022-08-14T23:51:36.639Z,47.70
2022-08-14T23:54:05.147Z,47.50
2022-08-14T23:59:29.352Z,47.70
